sensor_id;sensor_type;location;lat;lon;timestamp;pressure;altitude;pressure_sealevel;temperature;humidity
77706;BME280;66874;45.274;5.880;2024-02-14T00:00:10;99765.47;;;5.44;66.94
77706;BME280;66874;45.274;5.880;2024-02-14T00:02:47;99749.91;;;5.45;67.09
77706;BME280;66874;45.274;5.880;2024-02-14T00:05:17;99756.00;;;5.47;66.99
77706;BME280;66874;45.274;5.880;2024-02-14T00:07:43;99756.78;;;5.42;66.99
77706;BME280;66874;45.274;5.880;2024-02-14T00:10:08;99755.00;;;5.36;67.31
77706;BME280;66874;45.274;5.880;2024-02-14T00:12:35;99754.94;;;5.33;67.27
77706;BME280;66874;45.274;5.880;2024-02-14T00:15:03;99761.88;;;5.32;67.39
77706;BME280;66874;45.274;5.880;2024-02-14T00:17:31;99762.69;;;5.28;67.59
77706;BME280;66874;45.274;5.880;2024-02-14T00:19:57;99752.31;;;5.27;67.41
77706;BME280;66874;45.274;5.880;2024-02-14T00:22:23;99755.72;;;5.23;67.55
77706;BME280;66874;45.274;5.880;2024-02-14T00:24:48;99752.19;;;5.19;67.28
77706;BME280;66874;45.274;5.880;2024-02-14T00:27:14;99753.03;;;5.18;67.48
77706;BME280;66874;45.274;5.880;2024-02-14T00:29:40;99748.75;;;5.22;67.44
77706;BME280;66874;45.274;5.880;2024-02-14T00:32:05;99745.34;;;5.26;67.42
77706;BME280;66874;45.274;5.880;2024-02-14T00:34:31;99739.34;;;5.28;67.29
77706;BME280;66874;45.274;5.880;2024-02-14T00:36:56;99736.75;;;5.28;67.11
77706;BME280;66874;45.274;5.880;2024-02-14T00:39:21;99733.22;;;5.25;67.12
77706;BME280;66874;45.274;5.880;2024-02-14T00:41:47;99727.91;;;5.14;67.41
77706;BME280;66874;45.274;5.880;2024-02-14T00:44:13;99714.88;;;5.08;67.56
77706;BME280;66874;45.274;5.880;2024-02-14T00:46:42;99729.34;;;4.94;67.81
77706;BME280;66874;45.274;5.880;2024-02-14T00:49:08;99731.78;;;4.81;67.77
77706;BME280;66874;45.274;5.880;2024-02-14T00:51:35;99737.72;;;4.74;68.08
77706;BME280;66874;45.274;5.880;2024-02-14T00:54:02;99741.94;;;4.68;68.37
77706;BME280;66874;45.274;5.880;2024-02-14T00:56:28;99745.31;;;4.63;68.19
77706;BME280;66874;45.274;5.880;2024-02-14T00:58:53;99743.59;;;4.62;68.24
77706;BME280;66874;45.274;5.880;2024-02-14T01:01:18;99759.16;;;4.64;68.35
77706;BME280;66874;45.274;5.880;2024-02-14T01:03:44;99767.72;;;4.60;68.45
77706;BME280;66874;45.274;5.880;2024-02-14T01:06:09;99772.81;;;4.54;68.70
77706;BME280;66874;45.274;5.880;2024-02-14T01:08:35;99783.16;;;4.52;68.79
77706;BME280;66874;45.274;5.880;2024-02-14T01:11:01;99783.16;;;4.52;68.66
77706;BME280;66874;45.274;5.880;2024-02-14T01:13:26;99780.50;;;4.49;68.59
77706;BME280;66874;45.274;5.880;2024-02-14T01:15:52;99783.09;;;4.49;68.73
77706;BME280;66874;45.274;5.880;2024-02-14T01:18:18;99790.03;;;4.52;68.84
77706;BME280;66874;45.274;5.880;2024-02-14T01:20:43;99785.78;;;4.54;68.68
77706;BME280;66874;45.274;5.880;2024-02-14T01:23:09;99783.22;;;4.57;68.71
77706;BME280;66874;45.274;5.880;2024-02-14T01:25:34;99779.75;;;4.56;68.53
77706;BME280;66874;45.274;5.880;2024-02-14T01:28:00;99771.97;;;4.56;68.67
77706;BME280;66874;45.274;5.880;2024-02-14T01:30:26;99766.84;;;4.59;68.75
77706;BME280;66874;45.274;5.880;2024-02-14T01:32:52;99777.22;;;4.61;68.68
77706;BME280;66874;45.274;5.880;2024-02-14T01:35:18;99779.94;;;4.65;68.84
77706;BME280;66874;45.274;5.880;2024-02-14T01:37:44;99773.94;;;4.71;68.76
77706;BME280;66874;45.274;5.880;2024-02-14T01:40:10;99776.66;;;4.77;68.85
77706;BME280;66874;45.274;5.880;2024-02-14T01:42:36;99780.19;;;4.82;68.88
77706;BME280;66874;45.274;5.880;2024-02-14T01:45:02;99777.59;;;4.84;68.75
77706;BME280;66874;45.274;5.880;2024-02-14T01:47:28;99773.25;;;4.83;68.60
77706;BME280;66874;45.274;5.880;2024-02-14T01:49:54;99789.63;;;4.80;68.94
77706;BME280;66874;45.274;5.880;2024-02-14T01:52:19;99793.09;;;4.79;69.30
77706;BME280;66874;45.274;5.880;2024-02-14T01:54:47;99797.41;;;4.79;69.13
77706;BME280;66874;45.274;5.880;2024-02-14T01:57:13;99795.66;;;4.78;69.34
77706;BME280;66874;45.274;5.880;2024-02-14T01:59:38;99798.25;;;4.78;69.42
77706;BME280;66874;45.274;5.880;2024-02-14T02:02:04;99799.88;;;4.73;69.44
77706;BME280;66874;45.274;5.880;2024-02-14T02:04:33;99806.78;;;4.71;69.62
77706;BME280;66874;45.274;5.880;2024-02-14T02:06:59;99805.91;;;4.70;69.67
77706;BME280;66874;45.274;5.880;2024-02-14T02:09:25;99803.31;;;4.70;69.82
77706;BME280;66874;45.274;5.880;2024-02-14T02:11:51;99795.53;;;4.70;70.00
77706;BME280;66874;45.274;5.880;2024-02-14T02:14:19;99792.97;;;4.72;69.80
77706;BME280;66874;45.274;5.880;2024-02-14T02:16:45;99786.03;;;4.71;69.85
77706;BME280;66874;45.274;5.880;2024-02-14T02:19:11;99786.84;;;4.67;70.22
77706;BME280;66874;45.274;5.880;2024-02-14T02:21:36;99788.56;;;4.66;70.34
77706;BME280;66874;45.274;5.880;2024-02-14T02:24:02;99781.66;;;4.67;70.25
77706;BME280;66874;45.274;5.880;2024-02-14T02:26:28;99777.34;;;4.69;70.03
77706;BME280;66874;45.274;5.880;2024-02-14T02:28:53;99777.41;;;4.72;70.37
77706;BME280;66874;45.274;5.880;2024-02-14T02:31:19;99770.56;;;4.75;70.27
77706;BME280;66874;45.274;5.880;2024-02-14T02:33:45;99765.44;;;4.78;70.18
77706;BME280;66874;45.274;5.880;2024-02-14T02:36:11;99769.81;;;4.82;70.16
77706;BME280;66874;45.274;5.880;2024-02-14T02:38:36;99772.44;;;4.85;70.04
77706;BME280;66874;45.274;5.880;2024-02-14T02:41:03;99765.50;;;4.83;70.20
77706;BME280;66874;45.274;5.880;2024-02-14T02:43:34;99765.53;;;4.86;70.26
77706;BME280;66874;45.274;5.880;2024-02-14T02:46:00;99767.34;;;4.90;70.13
77706;BME280;66874;45.274;5.880;2024-02-14T02:48:25;99760.47;;;4.94;70.05
77706;BME280;66874;45.274;5.880;2024-02-14T02:50:51;99756.16;;;4.96;70.26
77706;BME280;66874;45.274;5.880;2024-02-14T02:53:18;99750.16;;;4.98;70.06
77706;BME280;66874;45.274;5.880;2024-02-14T02:55:43;99752.69;;;4.95;70.45
77706;BME280;66874;45.274;5.880;2024-02-14T02:58:10;99767.44;;;4.96;70.29
77706;BME280;66874;45.274;5.880;2024-02-14T03:00:35;99757.88;;;4.95;70.56
77706;BME280;66874;45.274;5.880;2024-02-14T03:03:01;99757.88;;;4.95;70.52
77706;BME280;66874;45.274;5.880;2024-02-14T03:05:28;99764.78;;;4.95;70.48
77706;BME280;66874;45.274;5.880;2024-02-14T03:07:56;99757.88;;;4.92;70.66
77706;BME280;66874;45.274;5.880;2024-02-14T03:10:23;99757.78;;;4.87;70.64
77706;BME280;66874;45.274;5.880;2024-02-14T03:12:50;99756.00;;;4.83;70.83
77706;BME280;66874;45.274;5.880;2024-02-14T03:15:16;99747.28;;;4.80;70.86
77706;BME280;66874;45.274;5.880;2024-02-14T03:17:42;99752.47;;;4.78;70.93
77706;BME280;66874;45.274;5.880;2024-02-14T03:20:13;99747.09;;;4.66;71.03
77706;BME280;66874;45.274;5.880;2024-02-14T03:22:43;99752.91;;;4.50;71.81
77706;BME280;66874;45.274;5.880;2024-02-14T03:25:17;99750.06;;;4.36;71.88
77706;BME280;66874;45.274;5.880;2024-02-14T03:27:43;99752.44;;;4.24;72.49
77706;BME280;66874;45.274;5.880;2024-02-14T03:30:12;99750.59;;;4.16;72.33
77706;BME280;66874;45.274;5.880;2024-02-14T03:32:38;99747.09;;;4.14;72.40
77706;BME280;66874;45.274;5.880;2024-02-14T03:35:04;99748.88;;;4.15;72.21
77706;BME280;66874;45.274;5.880;2024-02-14T03:37:29;99753.19;;;4.18;72.30
77706;BME280;66874;45.274;5.880;2024-02-14T03:39:55;99761.00;;;4.20;72.10
77706;BME280;66874;45.274;5.880;2024-02-14T03:42:21;99755.00;;;4.22;72.06
77706;BME280;66874;45.274;5.880;2024-02-14T03:44:46;99761.94;;;4.23;71.96
77706;BME280;66874;45.274;5.880;2024-02-14T03:47:12;99763.63;;;4.23;71.98
77706;BME280;66874;45.274;5.880;2024-02-14T03:49:39;99773.13;;;4.22;71.98
77706;BME280;66874;45.274;5.880;2024-02-14T03:52:06;99777.41;;;4.20;71.81
77706;BME280;66874;45.274;5.880;2024-02-14T03:54:35;99771.25;;;4.13;72.07
77706;BME280;66874;45.274;5.880;2024-02-14T03:57:01;99779.72;;;4.05;72.25
77706;BME280;66874;45.274;5.880;2024-02-14T03:59:26;99779.59;;;3.97;72.31
77706;BME280;66874;45.274;5.880;2024-02-14T04:01:51;99782.97;;;3.93;72.47
77706;BME280;66874;45.274;5.880;2024-02-14T04:04:18;99785.56;;;3.93;72.49
77706;BME280;66874;45.274;5.880;2024-02-14T04:06:44;99787.22;;;3.91;72.67
77706;BME280;66874;45.274;5.880;2024-02-14T04:09:11;99782.06;;;3.91;72.74
77706;BME280;66874;45.274;5.880;2024-02-14T04:11:36;99775.16;;;3.91;72.68
77706;BME280;66874;45.274;5.880;2024-02-14T04:14:02;99785.50;;;3.91;72.63
77706;BME280;66874;45.274;5.880;2024-02-14T04:16:27;99779.47;;;3.91;72.87
77706;BME280;66874;45.274;5.880;2024-02-14T04:18:52;99771.69;;;3.89;72.75
77706;BME280;66874;45.274;5.880;2024-02-14T04:21:20;99764.78;;;3.88;72.72
77706;BME280;66874;45.274;5.880;2024-02-14T04:23:45;99776.06;;;3.92;72.71
77706;BME280;66874;45.274;5.880;2024-02-14T04:26:18;99776.00;;;3.89;72.76
77706;BME280;66874;45.274;5.880;2024-02-14T04:28:44;99771.56;;;3.83;72.90
77706;BME280;66874;45.274;5.880;2024-02-14T04:31:09;99766.31;;;3.80;72.76
77706;BME280;66874;45.274;5.880;2024-02-14T04:33:35;99765.44;;;3.78;72.75
77706;BME280;66874;45.274;5.880;2024-02-14T04:36:00;99761.97;;;3.78;72.93
77706;BME280;66874;45.274;5.880;2024-02-14T04:38:26;99765.41;;;3.77;73.01
77706;BME280;66874;45.274;5.880;2024-02-14T04:40:53;99764.47;;;3.73;72.82
77706;BME280;66874;45.274;5.880;2024-02-14T04:43:20;99767.00;;;3.70;73.03
77706;BME280;66874;45.274;5.880;2024-02-14T04:45:46;99770.38;;;3.67;72.95
77706;BME280;66874;45.274;5.880;2024-02-14T04:48:12;99774.69;;;3.65;72.79
77706;BME280;66874;45.274;5.880;2024-02-14T04:50:37;99774.63;;;3.64;73.17
77706;BME280;66874;45.274;5.880;2024-02-14T04:53:03;99767.63;;;3.58;73.20
77706;BME280;66874;45.274;5.880;2024-02-14T04:55:29;99777.81;;;3.51;73.06
77706;BME280;66874;45.274;5.880;2024-02-14T04:57:54;99782.84;;;3.45;73.21
77706;BME280;66874;45.274;5.880;2024-02-14T05:00:19;99775.84;;;3.39;73.35
77706;BME280;66874;45.274;5.880;2024-02-14T05:02:45;99771.41;;;3.33;73.49
77706;BME280;66874;45.274;5.880;2024-02-14T05:05:10;99776.50;;;3.30;73.51
77706;BME280;66874;45.274;5.880;2024-02-14T05:07:36;99779.06;;;3.27;73.68
77706;BME280;66874;45.274;5.880;2024-02-14T05:10:01;99776.41;;;3.24;74.01
77706;BME280;66874;45.274;5.880;2024-02-14T05:12:27;99784.06;;;3.20;73.67
77706;BME280;66874;45.274;5.880;2024-02-14T05:14:52;99789.09;;;3.13;73.81
77706;BME280;66874;45.274;5.880;2024-02-14T05:17:18;99786.41;;;3.09;73.76
77706;BME280;66874;45.274;5.880;2024-02-14T05:19:43;99788.13;;;3.10;73.62
77706;BME280;66874;45.274;5.880;2024-02-14T05:22:09;99795.03;;;3.11;73.59
77706;BME280;66874;45.274;5.880;2024-02-14T05:24:34;99801.84;;;3.07;73.69
77706;BME280;66874;45.274;5.880;2024-02-14T05:27:01;99806.22;;;3.10;73.68
77706;BME280;66874;45.274;5.880;2024-02-14T05:29:26;99812.31;;;3.12;73.61
77706;BME280;66874;45.274;5.880;2024-02-14T05:31:51;99816.66;;;3.13;73.74
77706;BME280;66874;45.274;5.880;2024-02-14T05:34:20;99825.94;;;3.05;73.72
77706;BME280;66874;45.274;5.880;2024-02-14T05:36:46;99812.97;;;3.03;74.02
77706;BME280;66874;45.274;5.880;2024-02-14T05:39:11;99828.44;;;3.02;73.98
77706;BME280;66874;45.274;5.880;2024-02-14T05:41:37;99825.72;;;2.96;73.89
77706;BME280;66874;45.274;5.880;2024-02-14T05:44:03;99827.41;;;2.93;74.13
77706;BME280;66874;45.274;5.880;2024-02-14T05:46:28;99826.53;;;2.93;73.95
77706;BME280;66874;45.274;5.880;2024-02-14T05:48:54;99827.31;;;2.90;74.27
77706;BME280;66874;45.274;5.880;2024-02-14T05:51:20;99820.38;;;2.88;74.26
77706;BME280;66874;45.274;5.880;2024-02-14T05:53:46;99824.66;;;2.87;74.23
77706;BME280;66874;45.274;5.880;2024-02-14T05:56:11;99826.34;;;2.85;73.95
77706;BME280;66874;45.274;5.880;2024-02-14T05:58:36;99821.97;;;2.83;74.18
77706;BME280;66874;45.274;5.880;2024-02-14T06:01:02;99824.56;;;2.84;74.27
77706;BME280;66874;45.274;5.880;2024-02-14T06:03:27;99834.13;;;2.87;74.16
77706;BME280;66874;45.274;5.880;2024-02-14T06:05:53;99829.81;;;2.87;74.08
77706;BME280;66874;45.274;5.880;2024-02-14T06:08:20;99829.81;;;2.87;74.19
77706;BME280;66874;45.274;5.880;2024-02-14T06:10:45;99833.28;;;2.88;74.08
77706;BME280;66874;45.274;5.880;2024-02-14T06:13:11;99832.47;;;2.89;74.08
77706;BME280;66874;45.274;5.880;2024-02-14T06:15:36;99828.94;;;2.85;74.12
77706;BME280;66874;45.274;5.880;2024-02-14T06:18:01;99828.84;;;2.82;74.01
77706;BME280;66874;45.274;5.880;2024-02-14T06:20:30;99831.34;;;2.79;74.10
77706;BME280;66874;45.274;5.880;2024-02-14T06:22:55;99833.03;;;2.77;74.01
77706;BME280;66874;45.274;5.880;2024-02-14T06:25:21;99833.00;;;2.76;74.13
77706;BME280;66874;45.274;5.880;2024-02-14T06:27:46;99832.97;;;2.74;74.27
77706;BME280;66874;45.274;5.880;2024-02-14T06:30:12;99831.25;;;2.75;74.20
77706;BME280;66874;45.274;5.880;2024-02-14T06:32:37;99830.50;;;2.79;74.10
77706;BME280;66874;45.274;5.880;2024-02-14T06:35:03;99825.44;;;2.83;74.13
77706;BME280;66874;45.274;5.880;2024-02-14T06:37:28;99835.84;;;2.86;74.00
77706;BME280;66874;45.274;5.880;2024-02-14T06:39:54;99829.63;;;2.78;74.24
77706;BME280;66874;45.274;5.880;2024-02-14T06:42:19;99832.19;;;2.78;74.10
77706;BME280;66874;45.274;5.880;2024-02-14T06:44:45;99837.41;;;2.80;74.15
77706;BME280;66874;45.274;5.880;2024-02-14T06:47:11;99837.38;;;2.78;74.05
77706;BME280;66874;45.274;5.880;2024-02-14T06:49:36;99837.28;;;2.75;74.14
77706;BME280;66874;45.274;5.880;2024-02-14T06:52:02;99846.56;;;2.67;74.12
77706;BME280;66874;45.274;5.880;2024-02-14T06:54:27;99848.09;;;2.59;74.20
77706;BME280;66874;45.274;5.880;2024-02-14T06:56:52;99844.09;;;2.72;74.35
77706;BME280;66874;45.274;5.880;2024-02-14T06:59:18;99843.56;;;2.85;74.67
77706;BME280;66874;45.274;5.880;2024-02-14T07:01:43;99837.59;;;2.87;74.22
77706;BME280;66874;45.274;5.880;2024-02-14T07:04:08;99834.19;;;2.88;74.06
77706;BME280;66874;45.274;5.880;2024-02-14T07:06:34;99844.53;;;2.88;74.43
77706;BME280;66874;45.274;5.880;2024-02-14T07:08:59;99835.00;;;2.87;74.29
77706;BME280;66874;45.274;5.880;2024-02-14T07:11:24;99836.97;;;2.98;74.24
77706;BME280;66874;45.274;5.880;2024-02-14T07:13:50;99831.22;;;3.11;74.19
77706;BME280;66874;45.274;5.880;2024-02-14T07:16:15;99838.19;;;3.13;73.93
77706;BME280;66874;45.274;5.880;2024-02-14T07:18:41;99824.41;;;3.13;73.85
77706;BME280;66874;45.274;5.880;2024-02-14T07:21:06;99825.28;;;3.13;73.82
77706;BME280;66874;45.274;5.880;2024-02-14T07:23:32;99819.34;;;3.17;73.89
77706;BME280;66874;45.274;5.880;2024-02-14T07:25:59;99821.97;;;3.19;73.90
77706;BME280;66874;45.274;5.880;2024-02-14T07:28:24;99817.72;;;3.23;73.83
77706;BME280;66874;45.274;5.880;2024-02-14T07:30:49;99814.31;;;3.24;73.89
77706;BME280;66874;45.274;5.880;2024-02-14T07:33:15;99814.25;;;3.22;73.82
77706;BME280;66874;45.274;5.880;2024-02-14T07:35:40;99806.50;;;3.22;73.83
77706;BME280;66874;45.274;5.880;2024-02-14T07:38:07;99793.56;;;3.21;73.83
77706;BME280;66874;45.274;5.880;2024-02-14T07:40:33;99797.94;;;3.25;73.91
77706;BME280;66874;45.274;5.880;2024-02-14T07:42:59;99800.63;;;3.29;73.99
77706;BME280;66874;45.274;5.880;2024-02-14T07:45:24;99801.56;;;3.33;73.97
77706;BME280;66874;45.274;5.880;2024-02-14T07:47:50;99814.56;;;3.36;74.00
77706;BME280;66874;45.274;5.880;2024-02-14T07:50:15;99816.41;;;3.41;73.91
77706;BME280;66874;45.274;5.880;2024-02-14T07:52:44;99829.47;;;3.48;74.12
77706;BME280;66874;45.274;5.880;2024-02-14T07:55:10;99842.50;;;3.51;74.17
77706;BME280;66874;45.274;5.880;2024-02-14T07:57:38;99848.66;;;3.57;74.25
77706;BME280;66874;45.274;5.880;2024-02-14T08:00:05;99845.34;;;3.64;74.50
77706;BME280;66874;45.274;5.880;2024-02-14T08:02:30;99852.16;;;3.61;74.80
77706;BME280;66874;45.274;5.880;2024-02-14T08:04:56;99847.91;;;3.63;74.56
77706;BME280;66874;45.274;5.880;2024-02-14T08:07:21;99846.34;;;3.70;74.51
77706;BME280;66874;45.274;5.880;2024-02-14T08:09:46;99854.31;;;3.80;74.32
77706;BME280;66874;45.274;5.880;2024-02-14T08:12:12;99857.97;;;3.90;74.26
77706;BME280;66874;45.274;5.880;2024-02-14T08:14:38;99852.94;;;3.96;74.10
77706;BME280;66874;45.274;5.880;2024-02-14T08:17:03;99855.69;;;4.05;74.00
77706;BME280;66874;45.274;5.880;2024-02-14T08:19:29;99857.56;;;4.14;73.79
77706;BME280;66874;45.274;5.880;2024-02-14T08:21:54;99864.63;;;4.23;74.00
77706;BME280;66874;45.274;5.880;2024-02-14T08:24:25;99863.97;;;4.31;73.95
77706;BME280;66874;45.274;5.880;2024-02-14T08:26:51;99859.75;;;4.38;74.00
77706;BME280;66874;45.274;5.880;2024-02-14T08:29:16;99862.47;;;4.44;74.04
77706;BME280;66874;45.274;5.880;2024-02-14T08:31:41;99856.53;;;4.51;74.18
77706;BME280;66874;45.274;5.880;2024-02-14T08:34:07;99860.13;;;4.58;74.09
77706;BME280;66874;45.274;5.880;2024-02-14T08:36:34;99856.75;;;4.63;74.02
77706;BME280;66874;45.274;5.880;2024-02-14T08:39:06;99863.78;;;4.69;73.78
77706;BME280;66874;45.274;5.880;2024-02-14T08:41:32;99866.47;;;4.75;74.14
77706;BME280;66874;45.274;5.880;2024-02-14T08:43:57;99861.38;;;4.81;73.96
77706;BME280;66874;45.274;5.880;2024-02-14T08:46:23;99861.47;;;4.87;73.95
77706;BME280;66874;45.274;5.880;2024-02-14T08:48:50;99849.50;;;4.94;73.88
77706;BME280;66874;45.274;5.880;2024-02-14T08:51:17;99839.25;;;5.03;73.90
77706;BME280;66874;45.274;5.880;2024-02-14T08:53:45;99837.63;;;5.10;73.69
77706;BME280;66874;45.274;5.880;2024-02-14T08:56:11;99839.47;;;5.19;73.79
77706;BME280;66874;45.274;5.880;2024-02-14T08:58:36;99840.63;;;5.36;73.91
77706;BME280;66874;45.274;5.880;2024-02-14T09:01:02;99835.69;;;5.56;73.71
77706;BME280;66874;45.274;5.880;2024-02-14T09:03:27;99821.22;;;5.75;73.24
77706;BME280;66874;45.274;5.880;2024-02-14T09:05:53;99819.84;;;6.00;73.04
77706;BME280;66874;45.274;5.880;2024-02-14T09:08:19;99817.53;;;6.27;72.39
77706;BME280;66874;45.274;5.880;2024-02-14T09:10:46;99812.47;;;6.41;72.35
77706;BME280;66874;45.274;5.880;2024-02-14T09:13:11;99808.19;;;6.49;72.03
77706;BME280;66874;45.274;5.880;2024-02-14T09:15:37;99818.66;;;6.54;71.98
77706;BME280;66874;45.274;5.880;2024-02-14T09:18:02;99816.09;;;6.58;71.64
77706;BME280;66874;45.274;5.880;2024-02-14T09:20:28;99805.75;;;6.68;71.73
77706;BME280;66874;45.274;5.880;2024-02-14T09:22:55;99795.53;;;6.89;71.44
77706;BME280;66874;45.274;5.880;2024-02-14T09:25:20;99806.09;;;7.10;70.92
77706;BME280;66874;45.274;5.880;2024-02-14T09:27:49;99802.75;;;7.31;70.83
77706;BME280;66874;45.274;5.880;2024-02-14T09:30:14;99800.28;;;7.56;70.22
77706;BME280;66874;45.274;5.880;2024-02-14T09:32:42;99802.13;;;7.81;70.00
77706;BME280;66874;45.274;5.880;2024-02-14T09:35:08;99804.78;;;7.97;69.21
77706;BME280;66874;45.274;5.880;2024-02-14T09:37:33;99798.75;;;8.16;68.85
77706;BME280;66874;45.274;5.880;2024-02-14T09:39:58;99797.13;;;8.38;68.41
77706;BME280;66874;45.274;5.880;2024-02-14T09:42:56;99791.03;;;8.70;67.89
77706;BME280;66874;45.274;5.880;2024-02-14T09:45:26;99792.75;;;8.97;67.54
77706;BME280;66874;45.274;5.880;2024-02-14T09:47:54;99791.00;;;9.23;67.11
77706;BME280;66874;45.274;5.880;2024-02-14T09:50:20;99776.97;;;9.47;66.74
77706;BME280;66874;45.274;5.880;2024-02-14T09:52:47;99769.94;;;9.69;66.19
77706;BME280;66874;45.274;5.880;2024-02-14T09:55:14;99775.91;;;9.97;65.76
77706;BME280;66874;45.274;5.880;2024-02-14T09:57:41;99768.78;;;10.22;65.27
77706;BME280;66874;45.274;5.880;2024-02-14T10:00:12;99759.03;;;10.49;65.08
77706;BME280;66874;45.274;5.880;2024-02-14T10:02:41;99754.41;;;10.79;64.76
77706;BME280;66874;45.274;5.880;2024-02-14T10:05:07;99769.88;;;11.06;64.04
77706;BME280;66874;45.274;5.880;2024-02-14T10:07:43;99765.25;;;11.30;63.04
77706;BME280;66874;45.274;5.880;2024-02-14T10:10:09;99772.06;;;11.44;62.84
77706;BME280;66874;45.274;5.880;2024-02-14T10:12:35;99778.06;;;11.57;62.19
77706;BME280;66874;45.274;5.880;2024-02-14T10:15:00;99786.63;;;11.70;62.04
77706;BME280;66874;45.274;5.880;2024-02-14T10:17:27;99792.44;;;11.95;61.74
77706;BME280;66874;45.274;5.880;2024-02-14T10:19:59;99785.97;;;12.24;60.56
77706;BME280;66874;45.274;5.880;2024-02-14T10:22:31;99779.59;;;12.40;60.43
77706;BME280;66874;45.274;5.880;2024-02-14T10:24:57;99798.50;;;12.60;59.56
77706;BME280;66874;45.274;5.880;2024-02-14T10:27:22;99804.69;;;12.58;58.90
77706;BME280;66874;45.274;5.880;2024-02-14T10:29:48;99804.00;;;12.46;58.07
77706;BME280;66874;45.274;5.880;2024-02-14T10:32:16;99796.13;;;12.46;58.10
77706;BME280;66874;45.274;5.880;2024-02-14T10:34:43;99787.38;;;12.46;57.06
77706;BME280;66874;45.274;5.880;2024-02-14T10:37:13;99782.97;;;12.48;57.67
77706;BME280;66874;45.274;5.880;2024-02-14T10:39:41;99784.91;;;12.89;57.66
77706;BME280;66874;45.274;5.880;2024-02-14T10:42:07;99779.06;;;13.26;56.91
77706;BME280;66874;45.274;5.880;2024-02-14T10:44:32;99781.16;;;13.54;56.51
77706;BME280;66874;45.274;5.880;2024-02-14T10:47:00;99765.72;;;13.79;55.63
77706;BME280;66874;45.274;5.880;2024-02-14T10:49:29;99760.94;;;13.99;55.34
77706;BME280;66874;45.274;5.880;2024-02-14T10:51:56;99760.97;;;14.35;55.34
77706;BME280;66874;45.274;5.880;2024-02-14T10:54:25;99757.22;;;14.82;54.34
77706;BME280;66874;45.274;5.880;2024-02-14T10:56:53;99756.00;;;15.28;53.55
77706;BME280;66874;45.274;5.880;2024-02-14T10:59:20;99748.75;;;15.68;52.85
77706;BME280;66874;45.274;5.880;2024-02-14T11:01:46;99754.13;;;15.96;52.52
77706;BME280;66874;45.274;5.880;2024-02-14T11:04:13;99755.50;;;16.35;51.67
77706;BME280;66874;45.274;5.880;2024-02-14T11:06:51;99752.50;;;16.74;50.63
77706;BME280;66874;45.274;5.880;2024-02-14T11:09:18;99754.88;;;17.08;50.21
77706;BME280;66874;45.274;5.880;2024-02-14T11:11:47;99745.78;;;17.41;49.29
77706;BME280;66874;45.274;5.880;2024-02-14T11:14:16;99750.47;;;17.57;48.50
77706;BME280;66874;45.274;5.880;2024-02-14T11:16:45;99750.41;;;17.84;47.85
77706;BME280;66874;45.274;5.880;2024-02-14T11:19:12;99751.00;;;18.14;47.29
77706;BME280;66874;45.274;5.880;2024-02-14T11:21:45;99746.25;;;18.44;46.61
77706;BME280;66874;45.274;5.880;2024-02-14T11:24:13;99746.31;;;18.65;45.90
77706;BME280;66874;45.274;5.880;2024-02-14T11:26:48;99750.75;;;18.86;44.92
77706;BME280;66874;45.274;5.880;2024-02-14T11:29:18;99749.38;;;18.98;43.73
77706;BME280;66874;45.274;5.880;2024-02-14T11:31:47;99745.47;;;19.07;43.58
77706;BME280;66874;45.274;5.880;2024-02-14T11:34:16;99739.75;;;19.16;43.48
77706;BME280;66874;45.274;5.880;2024-02-14T11:36:42;99738.22;;;18.90;42.71
77706;BME280;66874;45.274;5.880;2024-02-14T11:39:08;99734.72;;;18.67;43.07
77706;BME280;66874;45.274;5.880;2024-02-14T11:41:34;99730.78;;;18.55;42.76
77706;BME280;66874;45.274;5.880;2024-02-14T11:44:04;99726.94;;;18.42;41.86
77706;BME280;66874;45.274;5.880;2024-02-14T11:46:34;99719.28;;;18.13;41.89
77706;BME280;66874;45.274;5.880;2024-02-14T11:49:01;99714.59;;;17.97;41.66
77706;BME280;66874;45.274;5.880;2024-02-14T11:51:27;99711.16;;;17.95;42.17
77706;BME280;66874;45.274;5.880;2024-02-14T11:53:53;99710.50;;;17.65;42.01
77706;BME280;66874;45.274;5.880;2024-02-14T11:56:21;99714.22;;;17.60;41.69
77706;BME280;66874;45.274;5.880;2024-02-14T11:58:47;99701.03;;;17.83;41.68
77706;BME280;66874;45.274;5.880;2024-02-14T12:01:16;99696.72;;;18.02;41.33
77706;BME280;66874;45.274;5.880;2024-02-14T12:03:42;99698.72;;;18.41;41.22
77706;BME280;66874;45.274;5.880;2024-02-14T12:06:09;99702.25;;;18.84;40.39
77706;BME280;66874;45.274;5.880;2024-02-14T12:08:35;99703.31;;;19.00;40.13
77706;BME280;66874;45.274;5.880;2024-02-14T12:11:01;99704.13;;;19.42;40.21
77706;BME280;66874;45.274;5.880;2024-02-14T12:13:26;99686.72;;;20.12;39.26
77706;BME280;66874;45.274;5.880;2024-02-14T12:15:52;99688.09;;;20.57;39.14
77706;BME280;66874;45.274;5.880;2024-02-14T12:18:19;99689.00;;;20.90;37.37
77706;BME280;66874;45.274;5.880;2024-02-14T12:20:45;99688.81;;;21.28;36.84
77706;BME280;66874;45.274;5.880;2024-02-14T12:23:16;99683.50;;;21.77;35.96
77706;BME280;66874;45.274;5.880;2024-02-14T12:25:42;99679.66;;;22.30;35.44
77706;BME280;66874;45.274;5.880;2024-02-14T12:28:08;99676.38;;;22.25;34.46
77706;BME280;66874;45.274;5.880;2024-02-14T12:30:46;99677.22;;;22.10;33.33
77706;BME280;66874;45.274;5.880;2024-02-14T12:33:12;99684.19;;;21.32;33.93
77706;BME280;66874;45.274;5.880;2024-02-14T12:35:45;99681.28;;;21.36;34.42
77706;BME280;66874;45.274;5.880;2024-02-14T12:38:12;99676.22;;;22.88;33.14
77706;BME280;66874;45.274;5.880;2024-02-14T12:40:38;99673.84;;;22.84;32.27
77706;BME280;66874;45.274;5.880;2024-02-14T12:43:08;99665.06;;;22.22;32.52
77706;BME280;66874;45.274;5.880;2024-02-14T12:45:34;99664.44;;;21.69;33.03
77706;BME280;66874;45.274;5.880;2024-02-14T12:48:00;99669.00;;;20.66;34.01
77706;BME280;66874;45.274;5.880;2024-02-14T12:50:25;99661.56;;;19.64;34.39
77706;BME280;66874;45.274;5.880;2024-02-14T12:52:51;99664.78;;;19.12;35.63
77706;BME280;66874;45.274;5.880;2024-02-14T12:55:17;99650.91;;;19.06;35.84
77706;BME280;66874;45.274;5.880;2024-02-14T12:57:44;99642.91;;;19.07;35.96
77706;BME280;66874;45.274;5.880;2024-02-14T13:00:10;99644.38;;;19.14;35.93
77706;BME280;66874;45.274;5.880;2024-02-14T13:02:35;99647.16;;;19.11;35.62